createdAt,value
2023-04-23T00:00:35.554Z,28.72
2023-04-23T00:01:35.597Z,28.76
2023-04-23T00:02:35.799Z,28.75
2023-04-23T00:03:35.891Z,28.71
2023-04-23T00:04:35.846Z,28.73
2023-04-23T00:05:35.750Z,28.75
2023-04-23T00:06:36.266Z,28.76
2023-04-23T00:07:35.812Z,28.75
2023-04-23T00:08:35.845Z,28.79
2023-04-23T00:09:35.879Z,28.75
2023-04-23T00:10:35.911Z,28.73
2023-04-23T00:11:35.946Z,28.74
2023-04-23T00:12:35.986Z,28.74
2023-04-23T00:13:36.017Z,28.73
2023-04-23T00:14:36.058Z,28.72
2023-04-23T00:15:36.088Z,28.75
2023-04-23T00:16:36.256Z,28.74
2023-04-23T00:17:36.168Z,28.74
2023-04-23T00:18:36.250Z,28.73
2023-04-23T00:19:36.235Z,28.73
2023-04-23T00:20:36.774Z,28.73
2023-04-23T00:21:36.301Z,28.76
2023-04-23T00:22:36.369Z,28.74
2023-04-23T00:23:36.374Z,28.69
2023-04-23T00:24:36.502Z,28.76
2023-04-23T00:25:36.452Z,28.79
2023-04-23T00:26:36.485Z,28.74
2023-04-23T00:27:36.529Z,28.72
2023-04-23T00:28:36.577Z,28.76
2023-04-23T00:29:36.592Z,28.74
2023-04-23T00:30:37.369Z,28.77
2023-04-23T00:31:36.698Z,28.74
2023-04-23T00:32:36.760Z,28.74
2023-04-23T00:33:36.732Z,28.76
2023-04-23T00:34:36.776Z,28.76
2023-04-23T00:35:36.867Z,28.72
2023-04-23T00:36:36.849Z,28.76
2023-04-23T00:37:36.888Z,28.79
2023-04-23T00:38:36.925Z,28.73
2023-04-23T00:39:36.950Z,28.77
2023-04-23T00:40:36.989Z,28.77
2023-04-23T00:41:37.027Z,28.79
2023-04-23T00:42:37.065Z,28.76
2023-04-23T00:43:37.125Z,28.77
2023-04-23T00:44:37.131Z,28.72
2023-04-23T00:45:37.215Z,28.77
2023-04-23T00:46:37.211Z,28.79
2023-04-23T00:47:37.301Z,28.79
2023-04-23T00:48:38.282Z,28.77
2023-04-23T00:49:37.330Z,28.79
2023-04-23T00:50:37.371Z,28.81
2023-04-23T00:51:37.416Z,28.77
2023-04-23T00:52:37.458Z,28.79
2023-04-23T00:53:37.497Z,28.79
2023-04-23T00:54:37.535Z,28.81
2023-04-23T00:55:37.576Z,28.77
2023-04-23T00:56:37.624Z,28.80
2023-04-23T00:57:37.663Z,28.80
2023-04-23T00:58:37.726Z,28.73
2023-04-23T00:59:37.770Z,28.79
2023-04-23T01:00:37.786Z,28.77
2023-04-23T01:01:37.933Z,28.81
2023-04-23T01:02:38.483Z,28.79
2023-04-23T01:03:38.052Z,28.76
2023-04-23T01:04:38.005Z,28.76
2023-04-23T01:05:38.028Z,28.80
2023-04-23T01:06:38.079Z,28.79
2023-04-23T01:07:38.106Z,28.83
2023-04-23T01:08:38.153Z,28.70
2023-04-23T01:09:38.257Z,28.80
2023-04-23T01:10:38.216Z,28.77
2023-04-23T01:11:38.260Z,28.80
2023-04-23T01:12:38.309Z,28.77
2023-04-23T01:13:38.351Z,28.80
2023-04-23T01:14:38.622Z,28.80
2023-04-23T01:15:38.414Z,28.77
2023-04-23T01:16:38.515Z,28.78
2023-04-23T01:17:38.514Z,28.80
2023-04-23T01:18:38.595Z,28.81
2023-04-23T01:19:38.592Z,28.79
2023-04-23T01:20:38.612Z,28.82
2023-04-23T01:21:38.637Z,28.81
2023-04-23T01:22:38.696Z,28.78
2023-04-23T01:23:38.736Z,28.85
2023-04-23T01:24:39.217Z,28.83
2023-04-23T01:25:38.822Z,28.80
2023-04-23T01:26:39.808Z,28.82
2023-04-23T01:27:38.926Z,28.81
2023-04-23T01:28:38.986Z,28.77
2023-04-23T01:29:39.033Z,28.78
2023-04-23T01:30:39.077Z,28.78
2023-04-23T01:31:39.110Z,28.75
2023-04-23T01:32:39.180Z,28.77
2023-04-23T01:33:39.207Z,28.81
2023-04-23T01:34:39.469Z,28.81
2023-04-23T01:35:39.306Z,28.80
2023-04-23T01:36:39.814Z,28.81
2023-04-23T01:37:39.465Z,28.82
2023-04-23T01:38:39.433Z,28.81
2023-04-23T01:39:39.487Z,28.79
2023-04-23T01:40:39.578Z,28.81
2023-04-23T01:41:40.310Z,28.82
2023-04-23T01:42:39.634Z,28.82
2023-04-23T01:43:39.676Z,28.82
2023-04-23T01:44:39.963Z,28.79
2023-04-23T01:45:39.786Z,28.79
2023-04-23T01:46:39.931Z,28.79
2023-04-23T01:47:39.983Z,28.82
2023-04-23T01:48:39.952Z,28.83
2023-04-23T01:49:40.010Z,28.86
2023-04-23T01:50:40.812Z,28.83
2023-04-23T01:51:40.093Z,28.78
2023-04-23T01:52:40.141Z,28.88
2023-04-23T01:53:40.312Z,28.79
2023-04-23T01:54:40.481Z,28.82
2023-04-23T01:55:40.292Z,28.83
2023-04-23T01:56:40.347Z,28.85
2023-04-23T01:57:40.842Z,28.85
2023-04-23T01:58:40.443Z,28.81
2023-04-23T01:59:40.486Z,28.82
2023-04-23T02:00:40.537Z,28.80
2023-04-23T02:01:40.666Z,28.83
2023-04-23T02:02:40.803Z,28.88
2023-04-23T02:03:40.840Z,28.79
2023-04-23T02:04:41.047Z,28.83
2023-04-23T02:05:40.787Z,28.88
2023-04-23T02:06:40.827Z,28.85
2023-04-23T02:07:40.956Z,28.88
2023-04-23T02:08:40.944Z,28.81
2023-04-23T02:09:41.012Z,28.83
2023-04-23T02:10:41.038Z,28.85
2023-04-23T02:11:41.089Z,28.82
2023-04-23T02:12:41.142Z,28.83
2023-04-23T02:13:41.199Z,28.82
2023-04-23T02:14:41.413Z,28.86
2023-04-23T02:15:41.308Z,28.86
2023-04-23T02:16:41.371Z,28.85
2023-04-23T02:17:41.431Z,28.88
2023-04-23T02:18:41.471Z,28.83
2023-04-23T02:19:41.530Z,28.80
2023-04-23T02:20:41.607Z,28.83
2023-04-23T02:21:41.633Z,28.82
2023-04-23T02:22:41.685Z,28.83
2023-04-23T02:23:41.733Z,28.85
2023-04-23T02:24:42.189Z,28.82
2023-04-23T02:25:41.826Z,28.89
2023-04-23T02:26:41.883Z,28.87
2023-04-23T02:27:41.926Z,28.82
2023-04-23T02:28:41.994Z,28.82
2023-04-23T02:29:42.033Z,28.88
2023-04-23T02:30:42.099Z,28.87
2023-04-23T02:31:42.185Z,28.85
2023-04-23T02:32:42.242Z,28.88
2023-04-23T02:33:42.258Z,28.85
2023-04-23T02:34:42.546Z,28.88
2023-04-23T02:35:42.364Z,28.87
2023-04-23T02:36:42.392Z,28.89
2023-04-23T02:37:42.453Z,28.91
2023-04-23T02:38:42.594Z,28.86
2023-04-23T02:39:42.539Z,28.80
2023-04-23T02:40:42.595Z,28.87
2023-04-23T02:41:43.423Z,28.87
2023-04-23T02:42:44.006Z,28.90
2023-04-23T02:43:42.730Z,28.88
2023-04-23T02:44:42.982Z,28.85
2023-04-23T02:45:42.833Z,28.90
2023-04-23T02:46:42.893Z,28.84
2023-04-23T02:47:42.962Z,28.88
2023-04-23T02:48:42.965Z,28.92
2023-04-23T02:49:43.103Z,28.83
2023-04-23T02:50:43.096Z,28.85
2023-04-23T02:51:43.210Z,28.93
2023-04-23T02:52:43.179Z,28.87
2023-04-23T02:53:43.231Z,28.86
2023-04-23T02:54:43.504Z,28.91
2023-04-23T02:55:43.339Z,28.90
2023-04-23T02:56:43.387Z,28.84
2023-04-23T02:57:43.445Z,28.88
2023-04-23T02:58:43.513Z,28.86
2023-04-23T02:59:43.566Z,28.88
2023-04-23T03:00:43.657Z,28.90
2023-04-23T03:01:43.689Z,28.91
2023-04-23T03:02:43.817Z,28.90
2023-04-23T03:03:43.993Z,28.90
2023-04-23T03:04:43.940Z,28.91
2023-04-23T03:05:43.881Z,28.91
2023-04-23T03:06:43.932Z,28.87
2023-04-23T03:07:43.985Z,28.90
2023-04-23T03:08:44.044Z,28.91
2023-04-23T03:09:44.101Z,28.90
2023-04-23T03:10:44.151Z,28.88
2023-04-23T03:11:44.219Z,28.93
2023-04-23T03:12:44.271Z,28.90
2023-04-23T03:13:44.330Z,28.90
2023-04-23T03:14:44.418Z,28.93
2023-04-23T03:15:44.433Z,28.88
2023-04-23T03:16:44.513Z,28.93
2023-04-23T03:17:44.570Z,28.91
2023-04-23T03:18:44.673Z,28.91
2023-04-23T03:19:44.856Z,28.93
2023-04-23T03:20:44.728Z,28.94
2023-04-23T03:21:44.770Z,28.95
2023-04-23T03:22:44.831Z,28.98
2023-04-23T03:23:44.884Z,28.91
2023-04-23T03:24:44.948Z,28.93
2023-04-23T03:25:45.083Z,28.93
2023-04-23T03:26:45.071Z,28.97
2023-04-23T03:27:45.135Z,28.97
2023-04-23T03:28:45.185Z,28.93
2023-04-23T03:29:45.249Z,28.92
2023-04-23T03:30:45.330Z,28.91
2023-04-23T03:31:45.343Z,28.93
2023-04-23T03:32:45.431Z,28.94
2023-04-23T03:33:45.460Z,28.85
2023-04-23T03:34:45.597Z,28.94
2023-04-23T03:35:45.575Z,28.93
2023-04-23T03:36:45.628Z,28.91
2023-04-23T03:37:45.694Z,28.92
2023-04-23T03:38:45.751Z,28.92
2023-04-23T03:39:45.803Z,28.93
2023-04-23T03:40:45.864Z,28.94
2023-04-23T03:41:46.850Z,28.95
2023-04-23T03:42:45.990Z,28.92
2023-04-23T03:43:46.046Z,28.92
2023-04-23T03:44:46.169Z,28.95
2023-04-23T03:45:46.271Z,28.95
2023-04-23T03:46:46.223Z,28.96
2023-04-23T03:47:46.451Z,28.91
2023-04-23T03:48:46.341Z,29.01
2023-04-23T03:49:46.403Z,28.94
2023-04-23T03:50:46.523Z,28.98
2023-04-23T03:51:46.517Z,28.96
2023-04-23T03:52:46.645Z,28.96
2023-04-23T03:53:46.721Z,28.94
2023-04-23T03:54:46.704Z,28.98
2023-04-23T03:55:46.766Z,28.95
2023-04-23T03:56:46.823Z,28.96
2023-04-23T03:57:46.892Z,28.95
2023-04-23T03:58:46.965Z,28.94
2023-04-23T03:59:47.037Z,28.94
2023-04-23T04:00:47.068Z,28.96
2023-04-23T04:01:47.178Z,28.95
2023-04-23T04:02:47.298Z,28.98
2023-04-23T04:03:47.443Z,28.98
2023-04-23T04:04:47.916Z,28.95
2023-04-23T04:05:47.469Z,28.96
2023-04-23T04:06:47.428Z,28.96
2023-04-23T04:07:47.495Z,28.95
2023-04-23T04:08:47.552Z,28.94
2023-04-23T04:09:47.608Z,28.98
2023-04-23T04:10:47.664Z,28.99
2023-04-23T04:11:47.731Z,28.98
2023-04-23T04:12:47.998Z,28.95
2023-04-23T04:13:47.846Z,28.99
2023-04-23T04:14:47.979Z,28.99
2023-04-23T04:15:47.981Z,28.99
2023-04-23T04:16:48.033Z,28.93
2023-04-23T04:17:48.112Z,29.02
2023-04-23T04:18:48.134Z,28.98
2023-04-23T04:19:48.176Z,29.01
2023-04-23T04:20:48.233Z,28.98
2023-04-23T04:21:48.287Z,28.96
2023-04-23T04:22:48.878Z,28.98
2023-04-23T04:23:48.426Z,28.99
2023-04-23T04:24:48.464Z,28.99
2023-04-23T04:25:48.504Z,28.98
2023-04-23T04:26:48.574Z,29.01
2023-04-23T04:27:48.629Z,28.98
2023-04-23T04:28:48.691Z,28.99
2023-04-23T04:29:48.763Z,28.94
2023-04-23T04:30:49.373Z,28.96
2023-04-23T04:31:49.068Z,28.99
2023-04-23T04:32:48.953Z,28.99
2023-04-23T04:33:49.079Z,29.00
2023-04-23T04:34:49.053Z,28.96
2023-04-23T04:35:49.121Z,28.95
2023-04-23T04:36:49.170Z,29.02
2023-04-23T04:37:49.234Z,28.99
2023-04-23T04:38:49.417Z,28.99
2023-04-23T04:39:49.355Z,29.05
2023-04-23T04:40:49.414Z,28.98
2023-04-23T04:41:49.465Z,28.98
2023-04-23T04:42:49.604Z,29.00
2023-04-23T04:43:49.598Z,28.98
2023-04-23T04:44:49.670Z,28.94
2023-04-23T04:45:49.706Z,28.98
2023-04-23T04:46:49.856Z,28.96
2023-04-23T04:47:49.915Z,28.95
2023-04-23T04:48:49.921Z,29.01
2023-04-23T04:49:49.996Z,28.99
2023-04-23T04:50:50.880Z,28.96
2023-04-23T04:51:50.121Z,28.98
2023-04-23T04:52:50.112Z,28.99
2023-04-23T04:53:50.187Z,28.96
2023-04-23T04:54:50.304Z,28.95
2023-04-23T04:55:50.288Z,28.96
2023-04-23T04:56:50.363Z,28.98
2023-04-23T04:57:50.414Z,28.94
2023-04-23T04:58:50.475Z,28.98
2023-04-23T04:59:50.550Z,28.96
2023-04-23T05:00:50.648Z,28.98
2023-04-23T05:01:50.663Z,28.98
2023-04-23T05:02:50.855Z,29.01
2023-04-23T05:03:50.935Z,28.98
2023-04-23T05:04:50.836Z,28.95
2023-04-23T05:05:50.905Z,28.96
2023-04-23T05:06:50.952Z,28.96
2023-04-23T05:07:51.892Z,28.96
2023-04-23T05:08:51.063Z,28.92
2023-04-23T05:09:51.125Z,28.96
2023-04-23T05:10:51.197Z,29.01
2023-04-23T05:11:51.234Z,28.94
2023-04-23T05:12:51.292Z,28.94
2023-04-23T05:13:51.359Z,28.95
2023-04-23T05:14:53.052Z,28.94
2023-04-23T05:15:51.402Z,28.94
2023-04-23T05:16:51.435Z,28.96
2023-04-23T05:17:51.387Z,28.94
2023-04-23T05:18:51.384Z,28.98
2023-04-23T05:19:51.374Z,28.92
2023-04-23T05:20:51.372Z,28.96
2023-04-23T05:21:51.360Z,28.96
2023-04-23T05:22:51.356Z,28.95
2023-04-23T05:23:51.361Z,28.89
2023-04-23T05:24:51.906Z,28.92
2023-04-23T05:25:51.912Z,28.96
2023-04-23T05:26:51.335Z,28.94
2023-04-23T05:27:51.456Z,28.95
2023-04-23T05:28:51.464Z,28.94
2023-04-23T05:29:51.501Z,28.96
2023-04-23T05:30:51.556Z,29.02
2023-04-23T05:31:51.652Z,28.95
2023-04-23T05:32:51.696Z,28.98
2023-04-23T05:33:51.733Z,28.94
2023-04-23T05:34:51.800Z,28.96
2023-04-23T05:35:51.839Z,28.96
2023-04-23T05:36:51.886Z,28.92
2023-04-23T05:37:51.958Z,28.99
2023-04-23T05:38:52.020Z,28.99
2023-04-23T05:39:52.066Z,28.98
2023-04-23T05:40:52.133Z,28.95
2023-04-23T05:41:52.175Z,28.95
2023-04-23T05:42:52.232Z,28.93
2023-04-23T05:43:52.306Z,28.90
2023-04-23T05:44:52.357Z,28.96
2023-04-23T05:45:52.428Z,28.95
2023-04-23T05:46:52.469Z,28.91
2023-04-23T05:47:52.543Z,28.97
2023-04-23T05:48:52.602Z,28.90
2023-04-23T05:49:52.656Z,28.92
2023-04-23T05:50:52.709Z,28.95
2023-04-23T05:51:53.395Z,28.94
2023-04-23T05:52:52.813Z,28.94
2023-04-23T05:53:52.872Z,28.88
2023-04-23T05:54:53.002Z,28.95
2023-04-23T05:55:52.977Z,28.91
2023-04-23T05:56:54.723Z,28.91
2023-04-23T05:57:53.085Z,28.88
2023-04-23T05:58:53.144Z,28.88
2023-04-23T05:59:53.197Z,28.85
2023-04-23T06:00:53.254Z,28.86
2023-04-23T06:01:53.297Z,28.80
2023-04-23T06:02:53.511Z,28.81
2023-04-23T06:03:53.596Z,28.77
2023-04-23T06:04:53.766Z,28.75
2023-04-23T06:05:53.805Z,28.74
2023-04-23T06:06:53.526Z,28.67
2023-04-23T06:07:53.583Z,28.63
2023-04-23T06:08:53.619Z,28.66
2023-04-23T06:09:53.659Z,28.57
2023-04-23T06:10:53.723Z,28.55
2023-04-23T06:11:53.794Z,28.56
2023-04-23T06:12:53.779Z,28.57
2023-04-23T06:13:53.828Z,28.57
2023-04-23T06:14:53.913Z,28.60
2023-04-23T06:15:53.942Z,28.51
2023-04-23T06:16:53.954Z,28.54
2023-04-23T06:17:54.033Z,28.54
2023-04-23T06:18:54.054Z,28.58
2023-04-23T06:19:54.052Z,28.50
2023-04-23T06:20:54.090Z,28.47
2023-04-23T06:21:54.127Z,28.43
2023-04-23T06:22:54.157Z,28.49
2023-04-23T06:23:54.199Z,28.46
2023-04-23T06:24:54.222Z,28.42
2023-04-23T06:25:54.256Z,28.49
2023-04-23T06:26:54.298Z,28.38
2023-04-23T06:27:54.324Z,28.36
2023-04-23T06:28:54.422Z,28.30
2023-04-23T06:29:54.381Z,28.34
2023-04-23T06:30:54.474Z,28.27
2023-04-23T06:31:54.468Z,28.29
2023-04-23T06:32:54.469Z,28.25
2023-04-23T06:33:54.588Z,28.16
2023-04-23T06:35:00.802Z,28.08
2023-04-23T06:35:55.482Z,28.03
2023-04-23T06:36:54.480Z,27.96
2023-04-23T06:37:54.469Z,27.89
2023-04-23T06:38:54.472Z,27.86
2023-04-23T06:39:54.448Z,27.80
2023-04-23T06:40:54.444Z,27.72
2023-04-23T06:41:54.443Z,27.66
2023-04-23T06:42:55.487Z,27.66
2023-04-23T06:43:54.422Z,27.54
2023-04-23T06:44:54.429Z,27.49
2023-04-23T06:45:54.413Z,27.49
2023-04-23T06:46:54.417Z,27.45
2023-04-23T06:47:54.464Z,27.49
2023-04-23T06:48:54.409Z,27.50
2023-04-23T06:49:54.921Z,27.51
2023-04-23T06:50:54.379Z,27.47
2023-04-23T06:51:55.282Z,27.40
2023-04-23T06:52:54.368Z,27.40
2023-04-23T06:53:54.364Z,27.30
2023-04-23T06:54:54.352Z,27.29
2023-04-23T06:55:54.376Z,27.24
2023-04-23T06:56:55.196Z,27.28
2023-04-23T06:57:54.329Z,27.21
2023-04-23T06:58:54.323Z,27.26
2023-04-23T06:59:54.312Z,27.23
2023-04-23T07:00:54.321Z,27.24
2023-04-23T07:01:54.306Z,27.27
2023-04-23T07:02:54.396Z,27.25
2023-04-23T07:03:54.321Z,27.27
2023-04-23T07:04:54.290Z,27.32
2023-04-23T07:05:54.280Z,27.28
2023-04-23T07:06:54.284Z,27.26
2023-04-23T07:07:54.276Z,27.28
2023-04-23T07:08:54.272Z,27.29
2023-04-23T07:09:54.270Z,27.28
2023-04-23T07:10:54.317Z,27.28
2023-04-23T07:11:54.280Z,27.23
2023-04-23T07:12:54.253Z,27.21
2023-04-23T07:13:54.250Z,27.26
2023-04-23T07:14:54.235Z,27.21
2023-04-23T07:15:54.228Z,27.23
2023-04-23T07:16:54.238Z,27.23
2023-04-23T07:17:54.276Z,27.20
2023-04-23T07:18:54.201Z,27.20
2023-04-23T07:19:54.200Z,27.22
2023-04-23T07:20:54.201Z,27.10
2023-04-23T07:21:54.197Z,27.14
2023-04-23T07:22:54.237Z,27.10
2023-04-23T07:23:54.197Z,26.99
2023-04-23T07:24:54.245Z,27.02
2023-04-23T07:25:54.269Z,26.94
2023-04-23T07:26:54.292Z,26.94
2023-04-23T07:27:54.342Z,26.98
2023-04-23T07:28:54.458Z,26.91
2023-04-23T07:29:54.396Z,26.94
2023-04-23T07:30:54.430Z,26.91
2023-04-23T07:31:54.480Z,26.87
2023-04-23T07:32:54.501Z,26.88
2023-04-23T07:33:54.506Z,26.93
2023-04-23T07:34:55.457Z,26.88
2023-04-23T07:35:54.610Z,26.77
2023-04-23T07:36:54.587Z,26.69
2023-04-23T07:37:54.626Z,26.69
2023-04-23T07:38:54.640Z,26.65
2023-04-23T07:39:54.639Z,26.57
2023-04-23T07:40:54.656Z,26.60
2023-04-23T07:41:54.669Z,26.54
2023-04-23T07:42:54.683Z,26.51
2023-04-23T07:43:54.690Z,26.44
2023-04-23T07:44:54.692Z,26.43
2023-04-23T07:45:54.716Z,26.34
2023-04-23T07:46:54.697Z,26.36
2023-04-23T07:47:54.696Z,26.37
2023-04-23T07:48:54.968Z,26.38
2023-04-23T07:49:54.702Z,26.39
2023-04-23T07:50:54.702Z,26.35
2023-04-23T07:51:54.708Z,26.29
2023-04-23T07:52:54.737Z,26.26
2023-04-23T07:53:54.779Z,26.23
2023-04-23T07:54:54.809Z,26.14
2023-04-23T07:55:54.880Z,26.11
2023-04-23T07:56:54.931Z,26.12
2023-04-23T07:57:55.056Z,26.05
2023-04-23T07:58:55.049Z,25.98
2023-04-23T07:59:55.967Z,26.00
2023-04-23T08:00:55.154Z,25.93
2023-04-23T08:01:55.210Z,25.86
2023-04-23T08:02:55.310Z,25.86
2023-04-23T08:03:56.818Z,25.76
2023-04-23T08:04:55.512Z,25.76
2023-04-23T08:05:55.244Z,25.68
2023-04-23T08:06:55.217Z,25.68
2023-04-23T08:07:55.219Z,25.63
2023-04-23T08:08:55.275Z,25.59
2023-04-23T08:09:55.201Z,25.52
2023-04-23T08:10:55.206Z,25.51
2023-04-23T08:11:55.490Z,25.45
2023-04-23T08:12:55.188Z,25.40
2023-04-23T08:13:55.189Z,25.38
2023-04-23T08:14:55.174Z,25.35
2023-04-23T08:15:55.262Z,25.30
2023-04-23T08:16:55.155Z,25.26
2023-04-23T08:17:55.193Z,25.15
2023-04-23T08:19:05.016Z,25.15
2023-04-23T08:19:56.151Z,25.11
2023-04-23T08:20:55.143Z,25.05
2023-04-23T08:21:55.124Z,25.03
2023-04-23T08:22:55.128Z,24.95
2023-04-23T08:23:55.116Z,24.97
2023-04-23T08:24:55.182Z,24.94
2023-04-23T08:25:55.109Z,24.91
2023-04-23T08:26:55.093Z,24.86
2023-04-23T08:27:55.160Z,24.83
2023-04-23T08:28:55.089Z,24.82
2023-04-23T08:29:55.130Z,24.71
2023-04-23T08:30:55.177Z,24.76
2023-04-23T08:31:55.270Z,24.73
2023-04-23T08:32:55.401Z,24.72
2023-04-23T08:33:55.414Z,24.63
2023-04-23T08:34:55.410Z,24.68
2023-04-23T08:35:55.445Z,24.59
2023-04-23T08:36:55.516Z,24.57
2023-04-23T08:37:55.574Z,24.60
2023-04-23T08:38:55.594Z,24.61
2023-04-23T08:39:55.698Z,24.60
2023-04-23T08:40:55.683Z,24.62
2023-04-23T08:41:55.706Z,24.57
2023-04-23T08:42:55.759Z,24.56
2023-04-23T08:43:55.803Z,24.56
2023-04-23T08:44:55.847Z,24.59
2023-04-23T08:45:55.898Z,24.57
2023-04-23T08:46:55.997Z,24.61
2023-04-23T08:47:55.992Z,24.61
2023-04-23T08:48:55.996Z,24.64
2023-04-23T08:49:56.030Z,24.59
2023-04-23T08:50:56.065Z,24.52
2023-04-23T08:51:56.104Z,24.48
2023-04-23T08:52:56.191Z,24.51
2023-04-23T08:53:56.168Z,24.57
2023-04-23T08:54:56.245Z,24.65
2023-04-23T08:55:56.257Z,24.64
2023-04-23T08:56:56.307Z,24.59
2023-04-23T08:57:56.345Z,24.60
2023-04-23T08:58:57.196Z,24.51
2023-04-23T08:59:56.421Z,24.51
2023-04-23T09:00:56.461Z,24.51
2023-04-23T09:01:56.516Z,24.57
2023-04-23T09:02:56.662Z,24.56
2023-04-23T09:03:56.631Z,24.70
2023-04-23T09:04:56.616Z,24.80
2023-04-23T09:05:56.669Z,24.87
2023-04-23T09:06:56.727Z,24.92
2023-04-23T09:07:57.485Z,24.96
2023-04-23T09:08:56.863Z,25.03
2023-04-23T09:09:56.918Z,25.08
2023-04-23T09:10:56.965Z,25.07
2023-04-23T09:11:56.988Z,25.13
2023-04-23T09:12:57.043Z,25.16
2023-04-23T09:13:57.013Z,25.16
2023-04-23T09:14:57.031Z,25.20
2023-04-23T09:15:57.011Z,25.22
2023-04-23T09:16:57.178Z,25.00
2023-04-23T09:17:57.317Z,25.00
2023-04-23T09:18:57.152Z,24.87
2023-04-23T09:19:57.210Z,24.96
2023-04-23T09:20:57.266Z,25.05
2023-04-23T09:21:57.316Z,25.10
2023-04-23T09:22:57.355Z,25.18
2023-04-23T09:23:57.375Z,25.21
2023-04-23T09:24:57.390Z,25.23
2023-04-23T09:25:57.391Z,25.30
2023-04-23T09:26:57.392Z,25.26
2023-04-23T09:27:57.381Z,25.19
2023-04-23T09:28:57.408Z,25.17
2023-04-23T09:29:57.430Z,25.07
2023-04-23T09:30:57.439Z,25.05
2023-04-23T09:31:57.509Z,25.08
2023-04-23T09:32:57.551Z,25.06
2023-04-23T09:33:57.558Z,25.02
2023-04-23T09:34:57.647Z,25.02
2023-04-23T09:35:57.660Z,25.01
2023-04-23T09:36:57.725Z,25.00
2023-04-23T09:37:57.790Z,24.98
2023-04-23T09:38:58.501Z,25.00
2023-04-23T09:39:57.907Z,24.97
2023-04-23T09:40:57.957Z,24.95
2023-04-23T09:41:58.011Z,24.94
2023-04-23T09:42:58.082Z,24.93
2023-04-23T09:43:58.121Z,24.93
2023-04-23T09:44:58.173Z,24.93
2023-04-23T09:45:58.328Z,25.00
2023-04-23T09:46:58.301Z,24.97
2023-04-23T09:47:58.432Z,24.94
2023-04-23T09:48:58.438Z,24.99
2023-04-23T09:49:58.478Z,24.92
2023-04-23T09:50:58.536Z,24.92
2023-04-23T09:51:58.596Z,24.88
2023-04-23T09:52:58.660Z,24.91
2023-04-23T09:53:58.700Z,24.98
2023-04-23T09:54:58.746Z,24.92
2023-04-23T09:55:58.792Z,24.92
2023-04-23T09:56:58.879Z,24.88
2023-04-23T09:57:58.883Z,24.95
2023-04-23T09:58:58.934Z,25.04
2023-04-23T10:00:07.287Z,25.14
2023-04-23T10:01:00.130Z,25.12
2023-04-23T10:01:58.967Z,25.09
2023-04-23T10:02:59.065Z,25.07
2023-04-23T10:03:59.195Z,25.10
2023-04-23T10:05:14.353Z,25.04
2023-04-23T10:06:02.306Z,25.04
2023-04-23T10:07:17.217Z,25.05
2023-04-23T10:07:59.932Z,24.99
2023-04-23T10:08:58.919Z,25.03
2023-04-23T10:09:58.913Z,24.99
2023-04-23T10:11:09.618Z,25.06
2023-04-23T10:11:59.898Z,25.07
2023-04-23T10:12:58.886Z,25.18
2023-04-23T10:13:58.888Z,25.22
2023-04-23T10:14:58.880Z,25.19
2023-04-23T10:16:07.158Z,25.23
2023-04-23T10:16:59.912Z,25.27
2023-04-23T10:17:58.892Z,25.27
2023-04-23T10:18:58.862Z,25.31
2023-04-23T10:19:58.842Z,25.24
2023-04-23T10:20:58.834Z,25.30
2023-04-23T10:22:08.540Z,25.39
2023-04-23T10:22:59.821Z,25.43
2023-04-23T10:23:58.824Z,25.43
2023-04-23T10:24:58.870Z,25.42
2023-04-23T10:25:58.800Z,25.41
2023-04-23T10:26:59.786Z,25.43
2023-04-23T10:27:58.790Z,25.39
2023-04-23T10:28:58.787Z,25.39
2023-04-23T10:29:58.769Z,25.49
2023-04-23T10:30:58.821Z,25.43
2023-04-23T10:31:58.759Z,25.45
2023-04-23T10:32:58.786Z,25.43
2023-04-23T10:33:59.573Z,25.43
2023-04-23T10:34:58.734Z,25.51
2023-04-23T10:35:58.738Z,25.51
2023-04-23T10:36:58.713Z,25.58
2023-04-23T10:37:58.716Z,25.59
2023-04-23T10:38:59.752Z,25.59
2023-04-23T10:39:58.705Z,25.64
2023-04-23T10:40:58.709Z,25.63
2023-04-23T10:41:58.719Z,25.63
2023-04-23T10:42:58.686Z,25.67
2023-04-23T10:43:58.694Z,25.66
2023-04-23T10:45:04.661Z,25.76
2023-04-23T10:46:00.447Z,25.83
2023-04-23T10:46:58.762Z,25.82
2023-04-23T10:47:58.711Z,25.87
2023-04-23T10:48:58.663Z,25.94
2023-04-23T10:49:58.705Z,25.91
2023-04-23T10:51:12.849Z,25.97
2023-04-23T10:52:59.639Z,26.08
2023-04-23T10:53:58.618Z,26.06
2023-04-23T10:54:58.613Z,26.10
2023-04-23T10:55:58.632Z,26.17
2023-04-23T10:56:58.653Z,26.11
2023-04-23T10:58:00.852Z,26.17
2023-04-23T10:58:58.585Z,26.18
2023-04-23T10:59:58.576Z,26.11
2023-04-23T11:00:58.611Z,26.15
2023-04-23T11:01:58.620Z,26.19
2023-04-23T11:02:58.705Z,26.22
2023-04-23T11:03:58.745Z,26.15
2023-04-23T11:04:58.863Z,26.19
2023-04-23T11:05:58.543Z,26.19
2023-04-23T11:06:58.549Z,26.18
2023-04-23T11:08:03.405Z,26.21
2023-04-23T11:08:59.512Z,26.22
2023-04-23T11:09:58.501Z,26.26
2023-04-23T11:10:58.545Z,26.26
2023-04-23T11:11:58.518Z,26.29
2023-04-23T11:12:58.479Z,26.31
2023-04-23T11:13:59.683Z,26.30
2023-04-23T11:14:58.478Z,26.28
2023-04-23T11:15:58.501Z,26.29
2023-04-23T11:16:58.471Z,26.22
2023-04-23T11:17:58.476Z,26.29
2023-04-23T11:18:58.455Z,26.28
2023-04-23T11:19:58.446Z,26.33
2023-04-23T11:20:58.437Z,26.34
2023-04-23T11:21:58.431Z,26.35
2023-04-23T11:22:58.434Z,26.31
2023-04-23T11:23:58.421Z,26.39
2023-04-23T11:24:58.432Z,26.39
2023-04-23T11:25:58.409Z,26.39
2023-04-23T11:26:58.408Z,26.47
2023-04-23T11:27:58.623Z,26.41
2023-04-23T11:28:58.398Z,26.46
2023-04-23T11:30:00.075Z,26.44
2023-04-23T11:30:58.399Z,26.49
2023-04-23T11:32:03.104Z,26.48
2023-04-23T11:32:59.619Z,26.52
2023-04-23T11:33:58.415Z,26.56
2023-04-23T11:34:58.405Z,26.57
2023-04-23T11:35:58.396Z,26.61
2023-04-23T11:36:58.412Z,26.62
2023-04-23T11:37:58.410Z,26.58
2023-04-23T11:38:58.384Z,26.59
2023-04-23T11:39:58.364Z,26.62
2023-04-23T11:40:58.346Z,26.70
2023-04-23T11:41:58.356Z,26.66
2023-04-23T11:42:58.338Z,26.70
2023-04-23T11:43:58.328Z,26.70
2023-04-23T11:44:58.423Z,26.66
2023-04-23T11:45:58.366Z,26.70
2023-04-23T11:46:58.550Z,26.65
2023-04-23T11:47:58.387Z,26.66
2023-04-23T11:48:58.300Z,26.70
2023-04-23T11:49:58.308Z,26.64
2023-04-23T11:50:58.308Z,26.64
2023-04-23T11:51:58.340Z,26.63
2023-04-23T11:52:58.359Z,26.62
2023-04-23T11:53:58.371Z,26.62
2023-04-23T11:54:58.444Z,26.65
2023-04-23T11:55:58.424Z,26.64
2023-04-23T11:56:58.474Z,26.65
2023-04-23T11:57:58.521Z,26.62
2023-04-23T11:58:58.508Z,26.69
2023-04-23T11:59:58.548Z,26.70
2023-04-23T12:00:58.582Z,26.73
2023-04-23T12:01:58.669Z,26.70
2023-04-23T12:02:59.805Z,26.73
2023-04-23T12:03:58.969Z,26.76
2023-04-23T12:04:58.865Z,26.76
2023-04-23T12:05:58.739Z,26.76
2023-04-23T12:06:58.895Z,26.78
2023-04-23T12:07:58.823Z,26.74
2023-04-23T12:08:58.838Z,26.75
2023-04-23T12:09:58.865Z,26.85
2023-04-23T12:10:58.908Z,26.82
2023-04-23T12:11:58.935Z,26.81
2023-04-23T12:12:59.566Z,26.85
2023-04-23T12:13:59.107Z,26.85
2023-04-23T12:14:59.054Z,26.85
2023-04-23T12:15:59.134Z,26.89
2023-04-23T12:16:59.148Z,26.85
2023-04-23T12:17:59.173Z,26.83
2023-04-23T12:18:59.209Z,26.85
2023-04-23T12:19:59.246Z,26.88
2023-04-23T12:20:59.284Z,26.83
2023-04-23T12:21:59.319Z,26.81
2023-04-23T12:22:59.366Z,26.85
2023-04-23T12:23:59.387Z,26.86
2023-04-23T12:24:59.432Z,26.83
2023-04-23T12:25:59.463Z,26.86
2023-04-23T12:26:59.517Z,26.85
2023-04-23T12:27:59.543Z,26.85
2023-04-23T12:28:59.594Z,26.88
2023-04-23T12:29:59.605Z,26.82
2023-04-23T12:30:59.655Z,26.82
2023-04-23T12:31:59.678Z,26.82
2023-04-23T12:32:59.743Z,26.83
2023-04-23T12:33:59.747Z,26.92
2023-04-23T12:34:59.783Z,26.92
2023-04-23T12:35:59.823Z,26.92
2023-04-23T12:36:59.855Z,26.92
2023-04-23T12:37:59.897Z,26.89
2023-04-23T12:38:59.945Z,26.89
2023-04-23T12:39:59.998Z,26.88
2023-04-23T12:41:00.043Z,26.90
2023-04-23T12:42:00.129Z,26.96
2023-04-23T12:43:00.145Z,26.93
2023-04-23T12:44:00.166Z,26.98
2023-04-23T12:45:00.218Z,27.01
2023-04-23T12:46:00.233Z,27.01
2023-04-23T12:47:00.335Z,27.02
2023-04-23T12:48:00.358Z,27.05
2023-04-23T12:49:00.393Z,27.03
2023-04-23T12:50:00.449Z,27.03
2023-04-23T12:51:00.498Z,27.05
2023-04-23T12:52:00.555Z,27.02
2023-04-23T12:53:00.608Z,27.13
2023-04-23T12:54:00.731Z,27.10